Time;durP1;ratioP1;P1;durP2;ratioP2;P2;SDS_P1;SDS_P2;PMS_P1;PMS_P2;Temp;Humidity;BMP_temperature;BMP_pressure;BME280_temperature;BME280_humidity;BME280_pressure;Samples;Min_cycle;Max_cycle;Signal;HPM_P1;HPM_P2
2024/03/25 00:00:35;;;;;;;3.23;2.30;;;7.50;99.90;;;;;;5038506;28;20458;-84
2024/03/25 00:03:04;;;;;;;3.23;1.90;;;7.60;99.90;;;;;;5044487;28;20442;-83
2024/03/25 00:05:32;;;;;;;2.20;2.03;;;7.50;99.90;;;;;;5041345;28;20506;-84
2024/03/25 00:07:59;;;;;;;3.17;2.00;;;7.40;99.90;;;;;;5040724;28;21201;-84
2024/03/25 00:10:25;;;;;;;2.20;2.00;;;7.50;99.90;;;;;;5042027;28;20534;-85
2024/03/25 00:12:55;;;;;;;2.20;1.97;;;7.50;99.90;;;;;;5042221;28;20473;-84
2024/03/25 00:15:23;;;;;;;3.57;2.07;;;7.50;99.90;;;;;;5042812;28;20461;-84
2024/03/25 00:17:51;;;;;;;4.53;2.10;;;7.50;99.90;;;;;;5043200;28;20446;-83
2024/03/25 00:20:19;;;;;;;1.80;1.70;;;7.40;99.90;;;;;;5042500;28;20525;-84
2024/03/25 00:22:46;;;;;;;3.77;3.57;;;7.40;99.90;;;;;;5040643;28;20483;-84
2024/03/25 00:25:12;;;;;;;2.20;1.80;;;7.40;99.90;;;;;;5043787;28;20487;-83
2024/03/25 00:27:39;;;;;;;2.03;1.93;;;7.30;99.90;;;;;;5061176;28;20460;-84
2024/03/25 00:30:07;;;;;;;3.10;2.33;;;7.30;99.90;;;;;;5039209;28;20509;-84
2024/03/25 00:32:34;;;;;;;3.03;2.43;;;7.30;99.90;;;;;;5040230;28;20447;-84
2024/03/25 00:35:00;;;;;;;2.20;2.10;;;7.40;99.90;;;;;;5025905;28;20558;-84
2024/03/25 00:37:28;;;;;;;4.27;2.10;;;7.30;99.90;;;;;;5045259;28;20485;-83
2024/03/25 00:39:55;;;;;;;2.03;1.93;;;7.20;99.90;;;;;;5041848;28;20540;-84
2024/03/25 00:42:22;;;;;;;2.43;2.23;;;7.20;99.90;;;;;;5041423;28;20540;-83
2024/03/25 00:44:48;;;;;;;2.73;2.17;;;7.30;99.90;;;;;;5043631;28;20482;-84
2024/03/25 00:47:16;;;;;;;2.50;2.30;;;7.20;99.90;;;;;;5044722;28;20879;-83
2024/03/25 00:49:42;;;;;;;2.20;2.10;;;7.30;99.90;;;;;;5046073;28;20468;-83
2024/03/25 00:52:09;;;;;;;3.40;2.53;;;7.30;99.90;;;;;;5048248;28;20470;-83
2024/03/25 00:54:36;;;;;;;2.30;1.80;;;7.20;99.90;;;;;;5045704;28;20505;-84
2024/03/25 00:57:04;;;;;;;2.93;2.30;;;7.30;99.90;;;;;;5041551;28;20461;-81
2024/03/25 00:59:30;;;;;;;2.47;2.37;;;7.40;99.90;;;;;;5045803;28;20495;-83
2024/03/25 01:01:58;;;;;;;2.50;2.30;;;7.30;99.90;;;;;;5046569;28;20505;-86
2024/03/25 01:04:24;;;;;;;2.17;2.07;;;7.30;99.90;;;;;;5052107;28;20592;-84
2024/03/25 01:06:52;;;;;;;2.27;2.17;;;7.20;99.90;;;;;;5051936;28;20526;-83
2024/03/25 01:09:18;;;;;;;2.10;1.90;;;7.30;99.90;;;;;;5047565;28;20461;-83
2024/03/25 01:11:47;;;;;;;4.03;2.30;;;7.20;99.90;;;;;;5043101;28;20573;-85
2024/03/25 01:14:13;;;;;;;2.10;1.90;;;7.20;99.90;;;;;;5045117;28;20477;-82
2024/03/25 01:16:41;;;;;;;3.53;1.80;;;7.10;99.90;;;;;;5044106;28;20497;-83
2024/03/25 01:19:07;;;;;;;2.20;2.00;;;7.10;99.90;;;;;;5046024;28;20443;-84
2024/03/25 01:21:35;;;;;;;3.00;2.17;;;7.30;99.90;;;;;;5038624;28;20476;-85
2024/03/25 01:24:01;;;;;;;4.03;2.37;;;7.20;99.90;;;;;;5041315;28;20449;-80
2024/03/25 01:26:29;;;;;;;4.27;2.83;;;7.30;99.90;;;;;;5045445;28;20842;-81
2024/03/25 01:28:56;;;;;;;4.17;1.90;;;7.30;99.90;;;;;;5042698;28;20456;-83
2024/03/25 01:31:23;;;;;;;3.10;2.30;;;7.30;99.90;;;;;;5024334;28;20837;-83
2024/03/25 01:33:50;;;;;;;3.43;2.13;;;7.30;99.90;;;;;;5029262;28;20508;-83
2024/03/25 01:36:18;;;;;;;3.20;2.80;;;7.30;99.90;;;;;;5038825;28;20467;-85
2024/03/25 01:38:45;;;;;;;1.87;1.77;;;7.30;99.90;;;;;;5024747;28;20725;-87
2024/03/25 01:41:12;;;;;;;2.93;2.20;;;7.30;99.90;;;;;;5023775;28;20540;-85
2024/03/25 01:43:39;;;;;;;2.37;2.20;;;7.30;99.90;;;;;;5025393;28;21159;-84
2024/03/25 01:46:08;;;;;;;4.37;2.10;;;7.30;99.90;;;;;;5040942;28;20481;-84
2024/03/25 01:48:34;;;;;;;3.10;1.80;;;7.30;99.90;;;;;;5040981;28;20953;-85
2024/03/25 01:51:03;;;;;;;3.60;3.30;;;7.40;99.90;;;;;;5044514;28;20447;-85
2024/03/25 01:53:30;;;;;;;2.33;2.13;;;7.30;99.90;;;;;;5045138;28;20474;-85
2024/03/25 01:55:59;;;;;;;2.20;2.00;;;7.20;99.90;;;;;;5037380;28;20473;-86
2024/03/25 01:58:25;;;;;;;3.43;2.43;;;7.20;99.90;;;;;;5035830;28;20535;-85
2024/03/25 02:00:54;;;;;;;3.63;2.17;;;7.20;99.90;;;;;;5044140;28;20550;-85
2024/03/25 02:03:22;;;;;;;2.83;1.93;;;7.20;99.90;;;;;;5032198;28;20617;-85
2024/03/25 02:05:53;;;;;;;2.20;2.00;;;7.20;99.90;;;;;;5041636;28;20467;-86
2024/03/25 02:08:21;;;;;;;2.93;2.73;;;7.20;99.90;;;;;;5046087;28;20445;-83
2024/03/25 02:10:48;;;;;;;2.23;2.13;;;7.20;99.90;;;;;;5039199;28;20557;-83
2024/03/25 02:13:15;;;;;;;2.93;2.33;;;7.10;99.90;;;;;;5041263;28;20565;-83
2024/03/25 02:15:42;;;;;;;2.13;1.93;;;7.10;99.90;;;;;;5037592;28;20988;-82
2024/03/25 02:18:08;;;;;;;2.03;1.93;;;7.20;99.90;;;;;;5037551;28;20462;-83
2024/03/25 02:20:37;;;;;;;3.00;2.00;;;7.30;99.90;;;;;;5039853;28;20479;-84
2024/03/25 02:23:03;;;;;;;2.07;1.93;;;7.40;99.90;;;;;;5021065;28;20998;-83
2024/03/25 02:25:33;;;;;;;4.40;2.00;;;7.40;99.90;;;;;;5042532;28;20465;-84
2024/03/25 02:28:01;;;;;;;2.17;2.07;;;7.40;99.90;;;;;;5045679;28;20450;-83
2024/03/25 02:30:28;;;;;;;2.10;2.00;;;7.50;99.90;;;;;;5039153;28;20455;-84
2024/03/25 02:32:54;;;;;;;2.93;2.03;;;7.50;99.90;;;;;;5040126;28;20446;-84
2024/03/25 02:35:23;;;;;;;3.50;2.47;;;7.40;99.90;;;;;;5041222;28;20928;-85
2024/03/25 02:37:51;;;;;;;2.80;2.60;;;7.40;99.90;;;;;;5044703;28;20515;-84
2024/03/25 02:40:22;;;;;;;2.63;2.43;;;7.40;99.90;;;;;;5042511;28;20459;-83
2024/03/25 02:42:48;;;;;;;2.40;2.20;;;7.30;99.90;;;;;;5042222;28;20494;-86
2024/03/25 02:45:17;;;;;;;2.40;2.20;;;7.40;99.90;;;;;;5044616;28;20470;-84
2024/03/25 02:47:46;;;;;;;3.30;2.33;;;7.40;99.90;;;;;;5040460;28;20920;-82
2024/03/25 02:50:13;;;;;;;3.17;2.77;;;7.20;99.90;;;;;;5045220;28;20462;-81
2024/03/25 02:52:39;;;;;;;2.60;2.43;;;7.20;99.90;;;;;;5038980;28;20516;-83
2024/03/25 02:55:07;;;;;;;2.87;2.50;;;7.20;99.90;;;;;;5029686;28;20481;-82
2024/03/25 02:57:33;;;;;;;2.17;1.97;;;7.20;99.90;;;;;;5039220;28;20497;-83
2024/03/25 03:00:01;;;;;;;2.53;2.43;;;7.10;99.90;;;;;;5042117;28;20451;-84
2024/03/25 03:02:28;;;;;;;3.50;2.53;;;7.10;99.90;;;;;;5039812;28;20487;-83
2024/03/25 03:04:55;;;;;;;2.03;1.93;;;7.10;99.90;;;;;;5039067;28;20476;-83
2024/03/25 03:07:22;;;;;;;3.23;2.30;;;7.10;99.90;;;;;;5042067;28;20990;-83
2024/03/25 03:09:49;;;;;;;3.40;2.50;;;7.00;99.90;;;;;;5039719;28;20959;-85
2024/03/25 03:12:15;;;;;;;5.67;2.53;;;7.00;99.90;;;;;;5020372;28;20535;-84
2024/03/25 03:14:42;;;;;;;2.20;1.90;;;7.00;99.90;;;;;;5042421;28;20471;-85
2024/03/25 03:17:09;;;;;;;2.37;2.17;;;7.10;99.90;;;;;;5035935;28;20523;-86
2024/03/25 03:19:37;;;;;;;4.07;2.43;;;7.10;99.90;;;;;;5044060;28;20464;-85
2024/03/25 03:22:04;;;;;;;3.13;2.10;;;7.10;99.90;;;;;;5045190;28;20568;-84
2024/03/25 03:24:31;;;;;;;3.53;2.77;;;7.20;99.90;;;;;;5038217;28;20464;-83
2024/03/25 03:26:57;;;;;;;4.27;2.60;;;7.20;99.90;;;;;;5040160;28;20993;-84
2024/03/25 03:29:24;;;;;;;5.00;2.57;;;7.20;99.90;;;;;;5040296;28;20471;-83
2024/03/25 03:31:50;;;;;;;3.10;2.47;;;7.10;99.90;;;;;;5037976;28;20456;-83
2024/03/25 03:34:17;;;;;;;5.83;2.87;;;7.20;99.90;;;;;;5042729;28;20543;-83
2024/03/25 03:36:45;;;;;;;3.83;2.97;;;7.20;99.90;;;;;;5041436;28;20476;-82
2024/03/25 03:39:13;;;;;;;3.07;2.30;;;7.00;99.90;;;;;;5040727;28;20488;-83
2024/03/25 03:41:39;;;;;;;2.57;2.40;;;6.90;99.90;;;;;;5037564;28;20539;-84
2024/03/25 03:44:06;;;;;;;3.67;2.23;;;7.10;99.90;;;;;;5039684;28;20500;-83
2024/03/25 03:46:32;;;;;;;3.53;3.33;;;7.10;99.90;;;;;;5042176;28;20499;-83
2024/03/25 03:49:00;;;;;;;2.70;2.50;;;7.20;99.90;;;;;;5044012;28;20468;-83
2024/03/25 03:51:26;;;;;;;3.47;2.70;;;7.20;99.90;;;;;;5043837;28;20557;-83
2024/03/25 03:53:55;;;;;;;3.53;2.23;;;7.10;99.90;;;;;;5041718;28;20462;-83
2024/03/25 03:56:21;;;;;;;2.60;2.40;;;7.10;99.90;;;;;;5040375;28;20485;-82
2024/03/25 03:58:48;;;;;;;4.60;2.47;;;7.10;99.90;;;;;;5044868;28;20511;-83
2024/03/25 04:01:15;;;;;;;3.07;2.77;;;7.20;99.90;;;;;;5043367;28;20548;-82
2024/03/25 04:03:43;;;;;;;2.70;2.50;;;7.00;99.90;;;;;;5041086;28;20580;-84
2024/03/25 04:06:10;;;;;;;3.30;2.20;;;7.10;99.90;;;;;;5042439;28;21331;-85
2024/03/25 04:08:37;;;;;;;2.63;2.43;;;7.20;99.90;;;;;;5045148;28;20475;-84
2024/03/25 04:11:06;;;;;;;3.20;2.40;;;7.10;99.90;;;;;;5045929;28;20461;-85
2024/03/25 04:13:34;;;;;;;2.97;2.67;;;7.20;99.90;;;;;;5040488;28;20457;-82
2024/03/25 04:16:04;;;;;;;2.40;2.23;;;7.20;99.90;;;;;;5047313;28;20505;-84
2024/03/25 04:18:33;;;;;;;2.93;2.70;;;7.10;99.90;;;;;;5040654;28;20483;-84
2024/03/25 04:21:01;;;;;;;3.07;2.77;;;7.10;99.90;;;;;;5047805;28;20839;-84
2024/03/25 04:23:28;;;;;;;5.53;2.37;;;7.10;99.90;;;;;;5042399;28;21038;-83
2024/03/25 04:25:54;;;;;;;5.17;2.73;;;7.00;99.90;;;;;;5047734;28;20469;-84
2024/03/25 04:28:23;;;;;;;4.67;2.37;;;7.10;99.90;;;;;;5043092;28;20882;-85
2024/03/25 04:30:53;;;;;;;3.20;2.30;;;7.10;99.90;;;;;;5046187;28;20530;-83
2024/03/25 04:33:20;;;;;;;3.23;2.57;;;7.10;99.90;;;;;;5069656;28;20468;-82
2024/03/25 04:35:47;;;;;;;2.00;1.90;;;7.00;99.90;;;;;;5025063;28;20468;-84
